Time;durP1;ratioP1;P1;durP2;ratioP2;P2;SDS_P1;SDS_P2;PMS_P1;PMS_P2;Temp;Humidity;BMP_temperature;BMP_pressure;BME280_temperature;BME280_humidity;BME280_pressure;Samples;Min_cycle;Max_cycle;Signal;HPM_P1;HPM_P2
2021/06/02 00:01:22;;;;;;;;;;;;;;;;;;5017901;28;20012;-80
2021/06/02 00:03:48;;;;;;;;;;;;;;;;;;5031966;28;19921;-80
2021/06/02 00:06:15;;;;;;;;;;;;;;;;;;5037728;28;20308;-80
2021/06/02 00:08:41;;;;;;;;;;;;;;;;;;5037461;28;19925;-81
2021/06/02 00:11:07;;;;;;;;;;;;;;;;;;5037514;28;20448;-79
2021/06/02 00:13:34;;;;;;;;;;;;;;;;;;5038111;28;20079;-79
2021/06/02 00:15:59;;;;;;;;;;;;;;;;;;5038131;28;19921;-82
2021/06/02 00:18:25;;;;;;;;;;;;;;;;;;5034722;28;20012;-81
2021/06/02 00:20:51;;;;;;;;;;;;;;;;;;5018948;28;19997;-81
2021/06/02 00:23:18;;;;;;;;;;;;;;;;;;5023839;28;19967;-80
2021/06/02 00:25:44;;;;;;;;;;;;;;;;;;5029868;28;19951;-81
2021/06/02 00:28:10;;;;;;;;;;;;;;;;;;5037952;28;19921;-81
2021/06/02 00:30:38;;;;;;;;;;;;;;;;;;5037442;28;19928;-81
2021/06/02 00:33:05;;;;;;;;;;;;;;;;;;5037116;28;20020;-81
2021/06/02 00:35:30;;;;;;;;;;;;;;;;;;5037161;28;20295;-80
2021/06/02 00:37:56;;;;;;;;;;;;;;;;;;5040735;28;19960;-80
2021/06/02 00:40:28;;;;;;;;;;;;;;;;;;5038169;28;19928;-81
2021/06/02 00:42:54;;;;;;;;;;;;;;;;;;5038377;28;20370;-80
2021/06/02 00:45:19;;;;;;;;;;;;;;;;;;5037807;28;19967;-80
2021/06/02 00:47:45;;;;;;;;;;;;;;;;;;5022919;28;19975;-80
2021/06/02 00:50:11;;;;;;;;;;;;;;;;;;5017619;28;19921;-81
2021/06/02 00:52:37;;;;;;;;;;;;;;;;;;5017595;28;20276;-80
2021/06/02 00:55:03;;;;;;;;;;;;;;;;;;5017472;28;19968;-80
2021/06/02 00:57:30;;;;;;;;;;;;;;;;;;5018087;28;19922;-80
2021/06/02 00:59:57;;;;;;;;;;;;;;;;;;5017628;28;19922;-80
2021/06/02 01:02:23;;;;;;;;;;;;;;;;;;5017588;28;19925;-79
2021/06/02 01:04:50;;;;;;;;;;;;;;;;;;5017987;28;19921;-79
2021/06/02 01:07:16;;;;;;;;;;;;;;;;;;5017465;28;19921;-80
2021/06/02 01:09:44;;;;;;;;;;;;;;;;;;5017551;28;19928;-81
2021/06/02 01:12:11;;;;;;;;;;;;;;;;;;5017849;28;19921;-79
2021/06/02 01:14:38;;;;;;;;;;;;;;;;;;5017673;28;19922;-79
2021/06/02 01:17:04;;;;;;;;;;;;;;;;;;5018107;28;19925;-79
2021/06/02 01:19:30;;;;;;;;;;;;;;;;;;5018562;28;20032;-80
2021/06/02 01:21:59;;;;;;;;;;;;;;;;;;5019907;28;19921;-81
2021/06/02 01:24:25;;;;;;;;;;;;;;;;;;5027016;28;19947;-82
2021/06/02 01:26:52;;;;;;;;;;;;;;;;;;5023858;28;19921;-82
2021/06/02 01:29:18;;;;;;;;;;;;;;;;;;5019877;28;19922;-81
2021/06/02 01:31:56;;;;;;;;;;;;;;;;;;5018754;28;19929;-80
2021/06/02 01:34:32;;;;;;;;;;;;;;;;;;5017494;28;19921;-79
2021/06/02 01:37:12;;;;;;;;;;;;;;;;;;5016876;28;19921;-80
2021/06/02 01:40:01;;;;;;;;;;;;;;;;;;5014449;28;19967;-80
2021/06/02 01:42:33;;;;;;;;;;;;;;;;;;5018282;28;19921;-79
2021/06/02 01:45:03;;;;;;;;;;;;;;;;;;5021038;28;19943;-80
2021/06/02 01:47:53;;;;;;;;;;;;;;;;;;5020474;28;20295;-80
2021/06/02 01:50:20;;;;;;;;;;;;;;;;;;5020767;28;19921;-80
2021/06/02 01:52:57;;;;;;;;;;;;;;;;;;5020823;28;19921;-80
2021/06/02 01:55:35;;;;;;;;;;;;;;;;;;5020843;28;19921;-81
2021/06/02 01:58:12;;;;;;;;;;;;;;;;;;5000140;28;19925;-80
2021/06/02 02:00:43;;;;;;;;;;;;;;;;;;5002153;28;19921;-81
2021/06/02 02:03:26;;;;;;;;;;;;;;;;;;5029944;28;19996;-80
2021/06/02 02:06:01;;;;;;;;;;;;;;;;;;5040205;28;19928;-80
2021/06/02 02:08:28;;;;;;;;;;;;;;;;;;5040226;28;19960;-80
2021/06/02 02:10:58;;;;;;;;;;;;;;;;;;5040088;28;19975;-80
2021/06/02 02:13:34;;;;;;;;;;;;;;;;;;5040475;28;19925;-79
2021/06/02 02:16:18;;;;;;;;;;;;;;;;;;5040489;28;19921;-80
2021/06/02 02:18:46;;;;;;;;;;;;;;;;;;5040875;28;19931;-81
2021/06/02 02:21:12;;;;;;;;;;;;;;;;;;5041481;28;20369;-80
2021/06/02 02:23:38;;;;;;;;;;;;;;;;;;5029112;28;19921;-81
2021/06/02 02:26:12;;;;;;;;;;;;;;;;;;5031368;28;19925;-79
2021/06/02 02:28:48;;;;;;;;;;;;;;;;;;5035236;28;19921;-80
2021/06/02 02:31:16;;;;;;;;;;;;;;;;;;5020093;28;19932;-79
2021/06/02 02:33:46;;;;;;;;;;;;;;;;;;5019213;28;19921;-79
2021/06/02 02:36:12;;;;;;;;;;;;;;;;;;5020057;28;19921;-79
2021/06/02 02:38:44;;;;;;;;;;;;;;;;;;5020316;28;20427;-81
2021/06/02 02:41:14;;;;;;;;;;;;;;;;;;5020209;28;20367;-80
2021/06/02 02:43:44;;;;;;;;;;;;;;;;;;5021437;28;20364;-80
2021/06/02 02:46:10;;;;;;;;;;;;;;;;;;5020644;28;20376;-81
2021/06/02 02:48:37;;;;;;;;;;;;;;;;;;5028370;28;19921;-80
2021/06/02 02:51:15;;;;;;;;;;;;;;;;;;5039745;28;19925;-79
2021/06/02 02:53:44;;;;;;;;;;;;;;;;;;5038817;28;20019;-81
2021/06/02 02:56:11;;;;;;;;;;;;;;;;;;5039306;28;19921;-79
2021/06/02 02:58:39;;;;;;;;;;;;;;;;;;5038185;28;19922;-80
2021/06/02 03:01:07;;;;;;;;;;;;;;;;;;5001380;28;19952;-80
2021/06/02 03:03:33;;;;;;;;;;;;;;;;;;5000909;28;19929;-80
2021/06/02 03:06:03;;;;;;;;;;;;;;;;;;5015280;28;19929;-81
2021/06/02 03:08:31;;;;;;;;;;;;;;;;;;5020128;28;19925;-81
2021/06/02 03:10:59;;;;;;;;;;;;;;;;;;5020214;28;19921;-81
2021/06/02 03:13:26;;;;;;;;;;;;;;;;;;5019679;28;19921;-81
2021/06/02 03:15:59;;;;;;;;;;;;;;;;;;5020822;28;19951;-80
2021/06/02 03:18:36;;;;;;;;;;;;;;;;;;5020112;28;19952;-80
2021/06/02 03:21:11;;;;;;;;;;;;;;;;;;5019922;28;19929;-81
2021/06/02 03:23:47;;;;;;;;;;;;;;;;;;5019677;28;19928;-80
2021/06/02 03:26:14;;;;;;;;;;;;;;;;;;5024974;28;19920;-80
2021/06/02 03:28:47;;;;;;;;;;;;;;;;;;5027931;28;19922;-80
2021/06/02 03:31:20;;;;;;;;;;;;;;;;;;5019252;28;19976;-82
2021/06/02 03:33:52;;;;;;;;;;;;;;;;;;5019441;28;19921;-80
2021/06/02 03:36:21;;;;;;;;;;;;;;;;;;5020156;28;19921;-82
2021/06/02 03:38:49;;;;;;;;;;;;;;;;;;5019453;28;20073;-80
2021/06/02 03:41:18;;;;;;;;;;;;;;;;;;5019454;28;19922;-80
2021/06/02 03:43:46;;;;;;;;;;;;;;;;;;5019292;28;19925;-81
2021/06/02 03:46:18;;;;;;;;;;;;;;;;;;5019428;28;19922;-82
2021/06/02 03:48:47;;;;;;;;;;;;;;;;;;5019440;28;19995;-82
2021/06/02 03:51:20;;;;;;;;;;;;;;;;;;5018527;28;20358;-81
2021/06/02 03:53:54;;;;;;;;;;;;;;;;;;5019147;28;19921;-80
2021/06/02 03:56:24;;;;;;;;;;;;;;;;;;5018732;28;19921;-81
2021/06/02 03:58:50;;;;;;;;;;;;;;;;;;5018277;28;19928;-81
2021/06/02 04:01:24;;;;;;;;;;;;;;;;;;5018908;28;19921;-80
2021/06/02 04:03:56;;;;;;;;;;;;;;;;;;5019043;28;19922;-82
2021/06/02 04:06:24;;;;;;;;;;;;;;;;;;5019042;28;19967;-80
2021/06/02 04:08:51;;;;;;;;;;;;;;;;;;5018689;28;19983;-81
2021/06/02 04:11:18;;;;;;;;;;;;;;;;;;5037380;28;19928;-81
2021/06/02 04:13:50;;;;;;;;;;;;;;;;;;5038947;28;19931;-81
2021/06/02 04:16:17;;;;;;;;;;;;;;;;;;5039065;28;19932;-82
2021/06/02 04:18:46;;;;;;;;;;;;;;;;;;5038732;28;20304;-81
2021/06/02 04:21:12;;;;;;;;;;;;;;;;;;5038778;28;19921;-81
2021/06/02 04:23:38;;;;;;;;;;;;;;;;;;5038790;28;19928;-81
2021/06/02 04:26:04;;;;;;;;;;;;;;;;;;5023901;28;19925;-81
2021/06/02 04:28:31;;;;;;;;;;;;;;;;;;5027083;28;19948;-83
2021/06/02 04:30:58;;;;;;;;;;;;;;;;;;5029775;28;20280;-82
2021/06/02 04:33:24;;;;;;;;;;;;;;;;;;5019165;28;19979;-82
2021/06/02 04:35:51;;;;;;;;;;;;;;;;;;5019024;28;20008;-83
2021/06/02 04:38:18;;;;;;;;;;;;;;;;;;5018190;28;19961;-81
2021/06/02 04:40:44;;;;;;;;;;;;;;;;;;5019203;28;20012;-82
2021/06/02 04:43:10;;;;;;;;;;;;;;;;;;5027212;28;19921;-82
2021/06/02 04:45:36;;;;;;;;;;;;;;;;;;5023463;28;20008;-82
2021/06/02 04:48:02;;;;;;;;;;;;;;;;;;5038699;28;19967;-82
2021/06/02 04:50:29;;;;;;;;;;;;;;;;;;5038441;28;19925;-82
2021/06/02 04:53:14;;;;;;;;;;;;;;;;;;5026420;28;20411;-82
2021/06/02 04:55:55;;;;;;;;;;;;;;;;;;5018238;28;19921;-81
2021/06/02 04:58:36;;;;;;;;;;;;;;;;;;5005628;28;19921;-82
2021/06/02 05:01:19;;;;;;;;;;;;;;;;;;5018493;28;19921;-84
2021/06/02 05:04:04;;;;;;;;;;;;;;;;;;5018684;28;19921;-82
2021/06/02 05:06:38;;;;;;;;;;;;;;;;;;5018817;28;19994;-82
2021/06/02 05:09:10;;;;;;;;;;;;;;;;;;5018680;28;19932;-82
2021/06/02 05:11:43;;;;;;;;;;;;;;;;;;5019190;28;19921;-84
2021/06/02 05:14:21;;;;;;;;;;;;;;;;;;5018873;28;19968;-83
2021/06/02 05:17:02;;;;;;;;;;;;;;;;;;5033380;28;19927;-82
2021/06/02 05:19:58;;;;;;;;;;;;;;;;;;5025510;28;19930;-83
2021/06/02 05:22:39;;;;;;;;;;;;;;;;;;5023912;28;19959;-83
2021/06/02 05:25:24;;;;;;;;;;;;;;;;;;5023269;28;19921;-83
2021/06/02 05:28:16;;;;;;;;;;;;;;;;;;5024695;28;19922;-83
2021/06/02 05:30:50;;;;;;;;;;;;;;;;;;4995273;28;19921;-83
2021/06/02 05:33:34;;;;;;;;;;;;;;;;;;5037942;28;19921;-83
2021/06/02 05:36:18;;;;;;;;;;;;;;;;;;5002497;28;19925;-83
2021/06/02 05:38:56;;;;;;;;;;;;;;;;;;5026243;28;19972;-84
2021/06/02 05:41:30;;;;;;;;;;;;;;;;;;5022963;28;20332;-84
2021/06/02 05:44:25;;;;;;;;;;;;;;;;;;5024261;28;19921;-83
2021/06/02 05:47:12;;;;;;;;;;;;;;;;;;5029590;28;19925;-83
2021/06/02 05:49:56;;;;;;;;;;;;;;;;;;5048470;28;19963;-83
2021/06/02 05:52:26;;;;;;;;;;;;;;;;;;5034728;28;19925;-86
2021/06/02 05:55:02;;;;;;;;;;;;;;;;;;5026613;28;20198;-83
2021/06/02 05:57:42;;;;;;;;;;;;;;;;;;5024008;28;20522;-83
2021/06/02 06:00:09;;;;;;;;;;;;;;;;;;5024321;28;19921;-85
2021/06/02 06:02:43;;;;;;;;;;;;;;;;;;5025450;28;20534;-83
2021/06/02 06:05:14;;;;;;;;;;;;;;;;;;5021579;28;19921;-85
2021/06/02 06:07:48;;;;;;;;;;;;;;;;;;5020805;28;19988;-82
2021/06/02 06:10:41;;;;;;;;;;;;;;;;;;5021881;28;19925;-83
2021/06/02 06:13:13;;;;;;;;;;;;;;;;;;4986574;28;19922;-83
2021/06/02 06:16:12;;;;;;;;;;;;;;;;;;5021397;28;19933;-84
2021/06/02 06:19:00;;;;;;;;;;;;;;;;;;5021701;28;19928;-82
2021/06/02 06:21:36;;;;;;;;;;;;;;;;;;5021213;28;19921;-82
2021/06/02 06:24:03;;;;;;;;;;;;;;;;;;5021001;28;19921;-85
2021/06/02 06:26:30;;;;;;;;;;;;;;;;;;5020968;28;19983;-84
2021/06/02 06:28:57;;;;;;;;;;;;;;;;;;5025153;28;19922;-84
2021/06/02 06:31:24;;;;;;;;;;;;;;;;;;5025685;28;20285;-84
2021/06/02 06:33:49;;;;;;;;;;;;;;;;;;5024909;28;19952;-84
2021/06/02 06:36:16;;;;;;;;;;;;;;;;;;5021110;28;20328;-85
2021/06/02 06:38:47;;;;;;;;;;;;;;;;;;5021186;28;19921;-84
2021/06/02 06:41:15;;;;;;;;;;;;;;;;;;5020740;28;19921;-84
2021/06/02 06:43:41;;;;;;;;;;;;;;;;;;5021933;28;19997;-85
2021/06/02 06:46:06;;;;;;;;;;;;;;;;;;5021846;28;20372;-84
2021/06/02 06:48:32;;;;;;;;;;;;;;;;;;5021654;28;19928;-81
2021/06/02 06:50:58;;;;;;;;;;;;;;;;;;5021681;28;20337;-84
2021/06/02 06:53:24;;;;;;;;;;;;;;;;;;5021125;28;19932;-85
2021/06/02 06:55:51;;;;;;;;;;;;;;;;;;5037942;28;19928;-84
2021/06/02 06:58:18;;;;;;;;;;;;;;;;;;5021046;28;19929;-81
2021/06/02 07:00:43;;;;;;;;;;;;;;;;;;5020573;28;19921;-83
2021/06/02 07:03:09;;;;;;;;;;;;;;;;;;5020759;28;19922;-84
2021/06/02 07:05:36;;;;;;;;;;;;;;;;;;5020502;28;20008;-84
2021/06/02 07:08:01;;;;;;;;;;;;;;;;;;5020515;28;19936;-82
2021/06/02 07:10:27;;;;;;;;;;;;;;;;;;5020893;28;20035;-82
2021/06/02 07:12:53;;;;;;;;;;;;;;;;;;5021146;28;19967;-83
2021/06/02 07:15:20;;;;;;;;;;;;;;;;;;5021659;28;19921;-82
2021/06/02 07:17:47;;;;;;;;;;;;;;;;;;5020490;28;19921;-82
2021/06/02 07:20:14;;;;;;;;;;;;;;;;;;5020116;28;19921;-82
2021/06/02 07:22:40;;;;;;;;;;;;;;;;;;5019907;28;19921;-82
2021/06/02 07:25:07;;;;;;;;;;;;;;;;;;5020969;28;19926;-83
2021/06/02 07:27:35;;;;;;;;;;;;;;;;;;5021800;28;19969;-83
2021/06/02 07:30:01;;;;;;;;;;;;;;;;;;5030212;28;19921;-84
2021/06/02 07:32:28;;;;;;;;;;;;;;;;;;5032023;28;19921;-82
2021/06/02 07:34:54;;;;;;;;;;;;;;;;;;5039671;28;19924;-83
2021/06/02 07:37:20;;;;;;;;;;;;;;;;;;5024247;28;19927;-82
2021/06/02 07:39:46;;;;;;;;;;;;;;;;;;5021090;28;19925;-84
2021/06/02 07:42:12;;;;;;;;;;;;;;;;;;5020354;28;19944;-84
2021/06/02 07:44:38;;;;;;;;;;;;;;;;;;5001623;28;19925;-84
2021/06/02 07:47:04;;;;;;;;;;;;;;;;;;5019724;28;19987;-84
2021/06/02 07:49:31;;;;;;;;;;;;;;;;;;5025845;28;20007;-84
2021/06/02 07:52:01;;;;;;;;;;;;;;;;;;5020315;28;19944;-84
2021/06/02 07:54:27;;;;;;;;;;;;;;;;;;5019679;28;19927;-83
2021/06/02 07:56:53;;;;;;;;;;;;;;;;;;5019437;28;20019;-82
2021/06/02 07:59:18;;;;;;;;;;;;;;;;;;5020408;28;19942;-83
2021/06/02 08:01:46;;;;;;;;;;;;;;;;;;5019422;28;19925;-83
2021/06/02 08:04:11;;;;;;;;;;;;;;;;;;5025283;28;19921;-83
2021/06/02 08:06:39;;;;;;;;;;;;;;;;;;5018519;28;20300;-82
2021/06/02 08:09:05;;;;;;;;;;;;;;;;;;5018423;28;19925;-82
2021/06/02 08:11:31;;;;;;;;;;;;;;;;;;5033497;28;19921;-83
2021/06/02 08:13:57;;;;;;;;;;;;;;;;;;5016897;28;19929;-84
2021/06/02 08:16:23;;;;;;;;;;;;;;;;;;5022640;28;20003;-83
2021/06/02 08:18:48;;;;;;;;;;;;;;;;;;5021480;28;20419;-84
2021/06/02 08:21:14;;;;;;;;;;;;;;;;;;5021441;28;19961;-84
2021/06/02 08:23:41;;;;;;;;;;;;;;;;;;5021822;28;20373;-84
2021/06/02 08:26:13;;;;;;;;;;;;;;;;;;5026414;28;19928;-84
2021/06/02 08:28:39;;;;;;;;;;;;;;;;;;5021735;28;19991;-84
2021/06/02 08:31:05;;;;;;;;;;;;;;;;;;5033595;28;20404;-85
2021/06/02 08:33:31;;;;;;;;;;;;;;;;;;5030444;28;20020;-85
2021/06/02 08:35:56;;;;;;;;;;;;;;;;;;5027838;28;19925;-84
2021/06/02 08:38:22;;;;;;;;;;;;;;;;;;5031875;28;19931;-83
2021/06/02 08:40:49;;;;;;;;;;;;;;;;;;5033997;28;19932;-83
2021/06/02 08:43:18;;;;;;;;;;;;;;;;;;5019623;28;19921;-83
2021/06/02 08:45:44;;;;;;;;;;;;;;;;;;5019011;28;19927;-84
2021/06/02 08:48:10;;;;;;;;;;;;;;;;;;5021326;28;19921;-85
2021/06/02 08:50:35;;;;;;;;;;;;;;;;;;5021341;28;19921;-84
2021/06/02 08:53:01;;;;;;;;;;;;;;;;;;5021031;28;20525;-83
2021/06/02 08:55:27;;;;;;;;;;;;;;;;;;5020157;28;20287;-84
2021/06/02 08:57:55;;;;;;;;;;;;;;;;;;5020068;28;19921;-84
2021/06/02 09:00:22;;;;;;;;;;;;;;;;;;5020423;28;19925;-84
2021/06/02 09:02:53;;;;;;;;;;;;;;;;;;5019276;28;19955;-85
2021/06/02 09:05:19;;;;;;;;;;;;;;;;;;5020638;28;19921;-83
2021/06/02 09:07:44;;;;;;;;;;;;;;;;;;5020587;28;19984;-84
2021/06/02 09:10:12;;;;;;;;;;;;;;;;;;5020715;28;20032;-82
2021/06/02 09:12:40;;;;;;;;;;;;;;;;;;5024401;28;19970;-85
2021/06/02 09:15:08;;;;;;;;;;;;;;;;;;5027443;28;19979;-82
2021/06/02 09:17:46;;;;;;;;;;;;;;;;;;5019098;28;19925;-82
2021/06/02 09:20:12;;;;;;;;;;;;;;;;;;5017949;28;19922;-83
2021/06/02 09:22:38;;;;;;;;;;;;;;;;;;5019314;28;19929;-84
2021/06/02 09:25:04;;;;;;;;;;;;;;;;;;5019899;28;19922;-83
2021/06/02 09:27:41;;;;;;;;;;;;;;;;;;5020294;28;19921;-87
2021/06/02 09:30:09;;;;;;;;;;;;;;;;;;5016577;28;20396;-83
2021/06/02 09:32:40;;;;;;;;;;;;;;;;;;5020632;28;20278;-83
2021/06/02 09:35:07;;;;;;;;;;;;;;;;;;5021733;28;19928;-83
2021/06/02 09:37:34;;;;;;;;;;;;;;;;;;5018684;28;19925;-83
2021/06/02 09:40:00;;;;;;;;;;;;;;;;;;5018284;28;19921;-83
2021/06/02 09:42:27;;;;;;;;;;;;;;;;;;5020188;28;19976;-84
2021/06/02 09:45:01;;;;;;;;;;;;;;;;;;5018977;28;19921;-85
2021/06/02 09:47:41;;;;;;;;;;;;;;;;;;5017705;28;19972;-83
2021/06/02 09:50:07;;;;;;;;;;;;;;;;;;5017224;28;19921;-83
2021/06/02 09:52:44;;;;;;;;;;;;;;;;;;5020054;28;19922;-83
2021/06/02 09:55:14;;;;;;;;;;;;;;;;;;5013041;28;19929;-84
2021/06/02 09:57:40;;;;;;;;;;;;;;;;;;5016939;28;19930;-83
2021/06/02 10:00:08;;;;;;;;;;;;;;;;;;5019506;28;19925;-82
2021/06/02 10:02:34;;;;;;;;;;;;;;;;;;5020106;28;19929;-82
2021/06/02 10:05:02;;;;;;;;;;;;;;;;;;5020626;28;19921;-82
2021/06/02 10:07:28;;;;;;;;;;;;;;;;;;5021152;28;19921;-81
2021/06/02 10:09:53;;;;;;;;;;;;;;;;;;5021897;28;20294;-82
2021/06/02 10:12:19;;;;;;;;;;;;;;;;;;5022082;28;20028;-82
2021/06/02 10:14:53;;;;;;;;;;;;;;;;;;5021604;28;19934;-84
2021/06/02 10:17:27;;;;;;;;;;;;;;;;;;5019584;28;19967;-82
2021/06/02 10:19:54;;;;;;;;;;;;;;;;;;5020907;28;19931;-85
2021/06/02 10:22:23;;;;;;;;;;;;;;;;;;5022829;28;19921;-85
2021/06/02 10:24:49;;;;;;;;;;;;;;;;;;5022569;28;19921;-84
2021/06/02 10:27:17;;;;;;;;;;;;;;;;;;5021247;28;20278;-85
2021/06/02 10:29:43;;;;;;;;;;;;;;;;;;5021512;28;20347;-82
2021/06/02 10:32:09;;;;;;;;;;;;;;;;;;5028298;28;19928;-81
2021/06/02 10:34:34;;;;;;;;;;;;;;;;;;5021943;28;20274;-83
2021/06/02 10:37:00;;;;;;;;;;;;;;;;;;5020865;28;20332;-82
2021/06/02 10:39:27;;;;;;;;;;;;;;;;;;5021952;28;19944;-82
2021/06/02 10:41:55;;;;;;;;;;;;;;;;;;5021067;28;19921;-82
2021/06/02 10:44:21;;;;;;;;;;;;;;;;;;5019182;28;20312;-82
2021/06/02 10:46:48;;;;;;;;;;;;;;;;;;5020261;28;19921;-83
2021/06/02 10:49:14;;;;;;;;;;;;;;;;;;5021698;28;19940;-82
2021/06/02 10:51:40;;;;;;;;;;;;;;;;;;5021424;28;20125;-82
2021/06/02 10:54:07;;;;;;;;;;;;;;;;;;5020418;28;19928;-82
2021/06/02 10:56:35;;;;;;;;;;;;;;;;;;5021966;28;19921;-82
2021/06/02 10:59:01;;;;;;;;;;;;;;;;;;5020396;28;19944;-83
2021/06/02 11:01:29;;;;;;;;;;;;;;;;;;5018611;28;19929;-81
2021/06/02 11:04:10;;;;;;;;;;;;;;;;;;5037115;28;20284;-83
2021/06/02 11:06:42;;;;;;;;;;;;;;;;;;5026096;28;20435;-81
2021/06/02 11:09:08;;;;;;;;;;;;;;;;;;5021406;28;19937;-81
2021/06/02 11:11:36;;;;;;;;;;;;;;;;;;5025807;28;20377;-82
2021/06/02 11:14:26;;;;;;;;;;;;;;;;;;5020822;28;19921;-81
2021/06/02 11:16:54;;;;;;;;;;;;;;;;;;5020121;28;20357;-81
2021/06/02 11:19:21;;;;;;;;;;;;;;;;;;5020117;28;19944;-81
2021/06/02 11:21:57;;;;;;;;;;;;;;;;;;5020126;28;19937;-82
2021/06/02 11:24:37;;;;;;;;;;;;;;;;;;5000065;28;20035;-81
2021/06/02 11:27:21;;;;;;;;;;;;;;;;;;5001648;28;20200;-82
2021/06/02 11:30:08;;;;;;;;;;;;;;;;;;5001916;28;19929;-83
2021/06/02 11:32:35;;;;;;;;;;;;;;;;;;5015381;28;19932;-82
2021/06/02 11:35:02;;;;;;;;;;;;;;;;;;5032531;28;19921;-82
2021/06/02 11:37:28;;;;;;;;;;;;;;;;;;5041734;28;19928;-82
2021/06/02 11:39:55;;;;;;;;;;;;;;;;;;5042151;28;20343;-83
2021/06/02 11:42:27;;;;;;;;;;;;;;;;;;5031836;28;19928;-84
2021/06/02 11:44:56;;;;;;;;;;;;;;;;;;5021325;28;20000;-82
2021/06/02 11:47:23;;;;;;;;;;;;;;;;;;5020686;28;19980;-85
2021/06/02 11:49:49;;;;;;;;;;;;;;;;;;5039275;28;19972;-83
2021/06/02 11:52:16;;;;;;;;;;;;;;;;;;5043026;28;19931;-81
2021/06/02 11:54:46;;;;;;;;;;;;;;;;;;5042067;28;19921;-80
2021/06/02 11:57:22;;;;;;;;;;;;;;;;;;5041942;28;19921;-85
2021/06/02 11:59:48;;;;;;;;;;;;;;;;;;5041680;28;19925;-82
2021/06/02 12:02:14;;;;;;;;;;;;;;;;;;5029546;28;19980;-82
2021/06/02 12:04:42;;;;;;;;;;;;;;;;;;5020394;28;20535;-80
2021/06/02 12:07:19;;;;;;;;;;;;;;;;;;5018613;28;19928;-81
2021/06/02 12:09:48;;;;;;;;;;;;;;;;;;5003596;28;19921;-81
2021/06/02 12:12:14;;;;;;;;;;;;;;;;;;5020064;28;19921;-85
2021/06/02 12:14:40;;;;;;;;;;;;;;;;;;5018567;28;20005;-81
2021/06/02 12:17:06;;;;;;;;;;;;;;;;;;5018468;28;20336;-81
2021/06/02 12:19:33;;;;;;;;;;;;;;;;;;5002695;28;19922;-81
2021/06/02 12:22:10;;;;;;;;;;;;;;;;;;5019928;28;19928;-80
2021/06/02 12:24:36;;;;;;;;;;;;;;;;;;5002177;28;19925;-82
2021/06/02 12:27:02;;;;;;;;;;;;;;;;;;5003008;28;19922;-81
2021/06/02 12:29:31;;;;;;;;;;;;;;;;;;5019658;28;19921;-80
2021/06/02 12:31:59;;;;;;;;;;;;;;;;;;5016266;28;19925;-81
2021/06/02 12:34:27;;;;;;;;;;;;;;;;;;5001573;28;20007;-82
2021/06/02 12:36:54;;;;;;;;;;;;;;;;;;5022217;28;20372;-81
2021/06/02 12:39:22;;;;;;;;;;;;;;;;;;5019931;28;19928;-84
2021/06/02 12:41:49;;;;;;;;;;;;;;;;;;5015526;28;19929;-80
2021/06/02 12:44:15;;;;;;;;;;;;;;;;;;5026412;28;19984;-82
2021/06/02 12:46:45;;;;;;;;;;;;;;;;;;5024040;28;19928;-81
2021/06/02 12:49:11;;;;;;;;;;;;;;;;;;5021279;28;19996;-80
2021/06/02 12:51:38;;;;;;;;;;;;;;;;;;5019486;28;20304;-83
2021/06/02 12:54:04;;;;;;;;;;;;;;;;;;5018537;28;19929;-82
2021/06/02 12:56:31;;;;;;;;;;;;;;;;;;5019554;28;19928;-82
2021/06/02 12:58:58;;;;;;;;;;;;;;;;;;5017536;28;20439;-82
2021/06/02 13:01:28;;;;;;;;;;;;;;;;;;5019490;28;19991;-82
2021/06/02 13:03:54;;;;;;;;;;;;;;;;;;5018829;28;19928;-82
2021/06/02 13:06:21;;;;;;;;;;;;;;;;;;5019516;28;19922;-82
2021/06/02 13:08:48;;;;;;;;;;;;;;;;;;5000231;28;19925;-81
2021/06/02 13:11:14;;;;;;;;;;;;;;;;;;5001084;28;19921;-81
2021/06/02 13:13:41;;;;;;;;;;;;;;;;;;5019136;28;19944;-80
2021/06/02 13:16:08;;;;;;;;;;;;;;;;;;5018695;28;19928;-81
2021/06/02 13:18:34;;;;;;;;;;;;;;;;;;5019636;28;20357;-82
2021/06/02 13:21:09;;;;;;;;;;;;;;;;;;5019802;28;19928;-81
2021/06/02 13:23:35;;;;;;;;;;;;;;;;;;5018684;28;19921;-83
2021/06/02 13:26:03;;;;;;;;;;;;;;;;;;5019751;28;19921;-82
2021/06/02 13:28:30;;;;;;;;;;;;;;;;;;5021130;28;19944;-81
2021/06/02 13:30:58;;;;;;;;;;;;;;;;;;5022074;28;20145;-82
2021/06/02 13:33:24;;;;;;;;;;;;;;;;;;5018796;28;20013;-79
2021/06/02 13:36:03;;;;;;;;;;;;;;;;;;5020514;28;19927;-81
2021/06/02 13:38:30;;;;;;;;;;;;;;;;;;5019562;28;19921;-81
2021/06/02 13:40:55;;;;;;;;;;;;;;;;;;5024244;28;19922;-85
2021/06/02 13:43:21;;;;;;;;;;;;;;;;;;5024274;28;19944;-81
2021/06/02 13:45:49;;;;;;;;;;;;;;;;;;5022688;28;19960;-81
2021/06/02 13:48:30;;;;;;;;;;;;;;;;;;5022468;28;19922;-81
2021/06/02 13:51:10;;;;;;;;;;;;;;;;;;5023194;28;19925;-81
2021/06/02 13:53:35;;;;;;;;;;;;;;;;;;5022547;28;19967;-82
2021/06/02 13:56:02;;;;;;;;;;;;;;;;;;5022537;28;19921;-82
2021/06/02 13:58:28;;;;;;;;;;;;;;;;;;5022830;28;19921;-82
2021/06/02 14:00:53;;;;;;;;;;;;;;;;;;5022897;28;19928;-82
2021/06/02 14:03:20;;;;;;;;;;;;;;;;;;5020397;28;20311;-82
2021/06/02 14:05:47;;;;;;;;;;;;;;;;;;5021729;28;20619;-82
2021/06/02 14:08:13;;;;;;;;;;;;;;;;;;5015533;28;19929;-81
2021/06/02 14:10:39;;;;;;;;;;;;;;;;;;5030848;28;19936;-81
2021/06/02 14:13:05;;;;;;;;;;;;;;;;;;5024064;28;20292;-82
2021/06/02 14:15:31;;;;;;;;;;;;;;;;;;5004540;28;19928;-82
2021/06/02 14:17:57;;;;;;;;;;;;;;;;;;5022652;28;19922;-82
2021/06/02 14:20:23;;;;;;;;;;;;;;;;;;5041867;28;19971;-82
2021/06/02 14:22:50;;;;;;;;;;;;;;;;;;5034535;28;19975;-82
2021/06/02 14:25:18;;;;;;;;;;;;;;;;;;5024124;28;19932;-84
2021/06/02 14:27:45;;;;;;;;;;;;;;;;;;5024742;28;19922;-85
2021/06/02 14:30:12;;;;;;;;;;;;;;;;;;5024795;28;19952;-84
2021/06/02 14:32:38;;;;;;;;;;;;;;;;;;5024176;28;19960;-81
2021/06/02 14:35:05;;;;;;;;;;;;;;;;;;5022611;28;19921;-82
2021/06/02 14:37:30;;;;;;;;;;;;;;;;;;5027206;28;19967;-84
2021/06/02 14:39:58;;;;;;;;;;;;;;;;;;5032311;28;19933;-83
2021/06/02 14:42:24;;;;;;;;;;;;;;;;;;5023017;28;19921;-83
2021/06/02 14:44:50;;;;;;;;;;;;;;;;;;5022765;28;19928;-82
2021/06/02 14:47:16;;;;;;;;;;;;;;;;;;5022452;28;20139;-83
2021/06/02 14:49:42;;;;;;;;;;;;;;;;;;5024015;28;19921;-84
2021/06/02 14:52:08;;;;;;;;;;;;;;;;;;5022862;28;20335;-81
2021/06/02 14:54:34;;;;;;;;;;;;;;;;;;5021925;28;19925;-83
2021/06/02 14:57:02;;;;;;;;;;;;;;;;;;5022281;28;19937;-84
2021/06/02 14:59:27;;;;;;;;;;;;;;;;;;5023520;28;19929;-83
2021/06/02 15:01:54;;;;;;;;;;;;;;;;;;5021295;28;19964;-82
2021/06/02 15:04:19;;;;;;;;;;;;;;;;;;5022812;28;19925;-84
2021/06/02 15:06:45;;;;;;;;;;;;;;;;;;5026169;28;20020;-82
2021/06/02 15:09:11;;;;;;;;;;;;;;;;;;5029735;28;20284;-81
2021/06/02 15:11:37;;;;;;;;;;;;;;;;;;5029991;28;20351;-85
2021/06/02 15:14:04;;;;;;;;;;;;;;;;;;5027888;28;19936;-83
2021/06/02 15:16:30;;;;;;;;;;;;;;;;;;5023617;28;19921;-83
2021/06/02 15:18:56;;;;;;;;;;;;;;;;;;5020306;28;19925;-83
2021/06/02 15:21:22;;;;;;;;;;;;;;;;;;5019789;28;19921;-83
2021/06/02 15:23:48;;;;;;;;;;;;;;;;;;5019862;28;19931;-84
2021/06/02 15:26:14;;;;;;;;;;;;;;;;;;5018991;28;20289;-83
2021/06/02 15:28:40;;;;;;;;;;;;;;;;;;5018395;28;20011;-84
2021/06/02 15:31:09;;;;;;;;;;;;;;;;;;5018828;28;19932;-83
2021/06/02 15:33:35;;;;;;;;;;;;;;;;;;5019180;28;19921;-84
2021/06/02 15:36:01;;;;;;;;;;;;;;;;;;5021694;28;19936;-84
2021/06/02 15:38:27;;;;;;;;;;;;;;;;;;5018531;28;19968;-84
2021/06/02 15:40:55;;;;;;;;;;;;;;;;;;5019577;28;19921;-84
2021/06/02 15:43:21;;;;;;;;;;;;;;;;;;5019492;28;19925;-83
2021/06/02 15:45:47;;;;;;;;;;;;;;;;;;5019466;28;19928;-83
2021/06/02 15:48:14;;;;;;;;;;;;;;;;;;5019375;28;19921;-82
2021/06/02 15:50:40;;;;;;;;;;;;;;;;;;5020142;28;19922;-83
2021/06/02 15:53:06;;;;;;;;;;;;;;;;;;5020024;28;19968;-84
2021/06/02 15:55:32;;;;;;;;;;;;;;;;;;5018212;28;20011;-83
2021/06/02 15:57:58;;;;;;;;;;;;;;;;;;5018616;28;19960;-83
2021/06/02 16:00:24;;;;;;;;;;;;;;;;;;5016410;28;19921;-83
2021/06/02 16:02:50;;;;;;;;;;;;;;;;;;5016914;28;20215;-83
2021/06/02 16:05:18;;;;;;;;;;;;;;;;;;5021906;28;20416;-83
2021/06/02 16:07:44;;;;;;;;;;;;;;;;;;5020988;28;19921;-83
2021/06/02 16:10:10;;;;;;;;;;;;;;;;;;5016917;28;20027;-84
2021/06/02 16:12:36;;;;;;;;;;;;;;;;;;5019967;28;19928;-84
2021/06/02 16:15:03;;;;;;;;;;;;;;;;;;5019389;28;19922;-83
2021/06/02 16:17:28;;;;;;;;;;;;;;;;;;5019168;28;19921;-84
2021/06/02 16:19:54;;;;;;;;;;;;;;;;;;5027578;28;20423;-84
2021/06/02 16:22:22;;;;;;;;;;;;;;;;;;5019418;28;19952;-83
2021/06/02 16:24:48;;;;;;;;;;;;;;;;;;5018958;28;20607;-83
2021/06/02 16:27:14;;;;;;;;;;;;;;;;;;5019759;28;19921;-83
2021/06/02 16:29:40;;;;;;;;;;;;;;;;;;5001948;28;19928;-83
2021/06/02 16:32:06;;;;;;;;;;;;;;;;;;5019530;28;19925;-83
2021/06/02 16:34:32;;;;;;;;;;;;;;;;;;5019699;28;19921;-83
2021/06/02 16:36:59;;;;;;;;;;;;;;;;;;5020875;28;20297;-83
2021/06/02 16:39:26;;;;;;;;;;;;;;;;;;5021038;28;19976;-83
2021/06/02 16:41:52;;;;;;;;;;;;;;;;;;5026976;28;19928;-84
2021/06/02 16:44:18;;;;;;;;;;;;;;;;;;5020977;28;19928;-83
2021/06/02 16:46:44;;;;;;;;;;;;;;;;;;5037599;28;19921;-84
2021/06/02 16:49:10;;;;;;;;;;;;;;;;;;5034631;28;19928;-84
2021/06/02 16:51:36;;;;;;;;;;;;;;;;;;5019239;28;19921;-83
2021/06/02 16:54:02;;;;;;;;;;;;;;;;;;5018346;28;19922;-83
2021/06/02 16:56:29;;;;;;;;;;;;;;;;;;5019349;28;19922;-83
2021/06/02 16:58:55;;;;;;;;;;;;;;;;;;5018846;28;19927;-83